Time;durP1;ratioP1;P1;durP2;ratioP2;P2;SDS_P1;SDS_P2;PMS_P1;PMS_P2;Temp;Humidity;BMP_temperature;BMP_pressure;BME280_temperature;BME280_humidity;BME280_pressure;Samples;Min_cycle;Max_cycle;Signal;HPM_P1;HPM_P2
2024/01/16 00:01:14;;;;;;;6.95;4.20;;;;;;;-0.76;63.11;98005.63;4908502;28;102971;-72
2024/01/16 00:03:41;;;;;;;6.32;3.60;;;;;;;-0.74;63.71;98011.53;4911683;28;102687;-71
2024/01/16 00:06:09;;;;;;;8.75;3.67;;;;;;;-0.71;63.41;98006.94;4922840;28;104272;-72
2024/01/16 00:08:38;;;;;;;6.93;4.07;;;;;;;-0.84;63.38;97999.22;4921007;28;103286;-72
2024/01/16 00:11:06;;;;;;;8.43;3.72;;;;;;;-0.77;63.29;98012.59;4919486;28;102828;-76
2024/01/16 00:13:34;;;;;;;5.85;3.75;;;;;;;-0.63;63.72;98016.75;4920015;28;102767;-71
2024/01/16 00:16:03;;;;;;;7.13;3.80;;;;;;;-0.65;63.23;98018.66;4917737;28;104134;-72
2024/01/16 00:18:31;;;;;;;6.22;4.07;;;;;;;-0.72;63.21;98017.44;4918919;28;104256;-72
2024/01/16 00:21:01;;;;;;;6.78;3.67;;;;;;;-0.68;63.24;98013.69;4921323;28;102566;-72
2024/01/16 00:23:31;;;;;;;9.25;4.10;;;;;;;-0.72;63.12;98012.25;4919717;28;104060;-72
2024/01/16 00:26:01;;;;;;;6.25;3.80;;;;;;;-0.69;63.48;98012.03;4919295;28;104132;-71
2024/01/16 00:28:29;;;;;;;4.90;3.58;;;;;;;-0.77;63.26;98016.94;4912967;28;103248;-71
2024/01/16 00:30:56;;;;;;;7.22;4.05;;;;;;;-0.78;63.50;98013.53;4920969;28;102683;-72
2024/01/16 00:33:27;;;;;;;7.57;4.20;;;;;;;-0.90;63.46;98015.25;4921615;28;104142;-72
2024/01/16 00:35:55;;;;;;;5.10;3.28;;;;;;;-0.85;63.27;98018.38;4922768;28;104135;-72
2024/01/16 00:38:23;;;;;;;6.80;3.95;;;;;;;-0.80;63.63;98019.78;4921806;28;103400;-71
2024/01/16 00:40:51;;;;;;;6.72;3.58;;;;;;;-0.78;63.47;98018.72;4918843;28;102675;-71
2024/01/16 00:43:20;;;;;;;6.90;4.30;;;;;;;-0.79;63.92;98021.44;4923457;28;104310;-71
2024/01/16 00:45:49;;;;;;;6.20;3.38;;;;;;;-0.79;63.56;98016.25;4922686;28;104046;-72
2024/01/16 00:48:17;;;;;;;6.43;4.18;;;;;;;-0.88;63.95;98018.59;4916617;28;103346;-72
2024/01/16 00:50:46;;;;;;;7.10;4.13;;;;;;;-0.86;63.36;98014.09;4920582;28;102639;-72
2024/01/16 00:53:14;;;;;;;5.82;3.40;;;;;;;-0.81;64.00;98012.94;4920936;28;102894;-72
2024/01/16 00:55:42;;;;;;;7.65;4.45;;;;;;;-0.80;63.59;98006.78;4916470;28;103963;-71
2024/01/16 00:58:09;;;;;;;5.93;3.38;;;;;;;-0.87;64.03;98004.63;4918796;28;104123;-72
2024/01/16 01:00:39;;;;;;;7.10;4.03;;;;;;;-0.91;64.15;98000.59;4917407;28;102955;-71
2024/01/16 01:03:07;;;;;;;7.68;4.63;;;;;;;-0.85;63.92;97996.75;4917665;28;104052;-71
2024/01/16 01:05:35;;;;;;;9.70;4.20;;;;;;;-0.95;64.20;98001.78;4918317;28;104124;-72
2024/01/16 01:08:03;;;;;;;7.25;4.25;;;;;;;-0.94;63.96;98011.25;4922896;28;103076;-72
2024/01/16 01:10:31;;;;;;;7.35;4.30;;;;;;;-0.95;64.49;98006.97;4915245;28;102631;-72
2024/01/16 01:12:58;;;;;;;6.43;4.00;;;;;;;-0.95;64.86;98006.97;4921118;28;104092;-72
2024/01/16 01:15:26;;;;;;;6.38;3.90;;;;;;;-0.90;64.22;97999.66;4918619;28;104454;-72
2024/01/16 01:17:56;;;;;;;6.07;4.38;;;;;;;-0.92;64.36;98011.94;4912301;28;104403;-71
2024/01/16 01:20:24;;;;;;;7.43;4.45;;;;;;;-0.93;64.65;98015.50;4919097;28;102697;-70
2024/01/16 01:22:52;;;;;;;7.38;4.57;;;;;;;-0.91;64.53;98008.41;4918305;28;104090;-72
2024/01/16 01:25:20;;;;;;;6.85;4.22;;;;;;;-0.95;64.90;98022.56;4919290;28;103488;-71
2024/01/16 01:27:48;;;;;;;6.72;4.20;;;;;;;-1.01;64.31;98021.25;4915208;28;103297;-71
2024/01/16 01:30:16;;;;;;;8.10;4.70;;;;;;;-0.94;64.87;98031.19;4916166;28;102789;-71
2024/01/16 01:32:44;;;;;;;7.15;4.72;;;;;;;-0.98;64.83;98035.81;4916272;28;103396;-72
2024/01/16 01:35:14;;;;;;;6.03;4.15;;;;;;;-0.87;64.30;98046.22;4917845;28;103266;-72
2024/01/16 01:37:42;;;;;;;5.80;3.67;;;;;;;-0.88;64.49;98034.19;4916378;28;103191;-72
2024/01/16 01:40:14;;;;;;;6.25;3.83;;;;;;;-0.87;64.74;98043.63;4914337;28;102626;-71
2024/01/16 01:42:42;;;;;;;5.63;3.30;;;;;;;-0.89;64.36;98042.94;4928129;28;104253;-71
2024/01/16 01:45:11;;;;;;;5.43;3.42;;;;;;;-0.92;64.55;98044.91;4918494;28;103222;-72
2024/01/16 01:47:42;;;;;;;5.95;3.75;;;;;;;-0.93;64.68;98049.31;4918494;28;103198;-72
2024/01/16 01:50:10;;;;;;;6.32;4.28;;;;;;;-0.99;65.23;98041.94;4914143;28;102734;-72
2024/01/16 01:52:41;;;;;;;8.05;4.68;;;;;;;-0.98;65.17;98043.59;4925670;28;102704;-72
2024/01/16 01:55:12;;;;;;;6.13;3.92;;;;;;;-0.99;65.17;98047.13;4917072;28;104593;-72
2024/01/16 01:57:42;;;;;;;9.85;4.57;;;;;;;-1.09;64.97;98054.75;4918503;28;104092;-72
2024/01/16 02:00:11;;;;;;;6.45;3.35;;;;;;;-1.04;65.12;98059.63;4919833;28;102955;-72
2024/01/16 02:02:40;;;;;;;7.80;4.60;;;;;;;-1.09;65.27;98061.72;4923323;28;104192;-72
2024/01/16 02:05:09;;;;;;;6.75;4.10;;;;;;;-1.18;65.44;98058.84;4921891;28;103427;-74
2024/01/16 02:07:37;;;;;;;7.43;4.40;;;;;;;-1.04;65.52;98049.25;4919107;28;104309;-72
2024/01/16 02:10:07;;;;;;;9.40;4.95;;;;;;;-1.15;65.49;98056.97;4919206;28;102546;-72
2024/01/16 02:12:35;;;;;;;8.65;5.20;;;;;;;-1.18;65.33;98052.81;4919711;28;103319;-72
2024/01/16 02:15:03;;;;;;;9.02;4.97;;;;;;;-1.15;65.43;98046.56;4917993;28;105334;-71
2024/01/16 02:17:31;;;;;;;6.38;4.22;;;;;;;-1.12;65.13;98054.16;4919109;28;104373;-71
2024/01/16 02:19:59;;;;;;;7.25;4.55;;;;;;;-1.13;65.11;98055.09;4917631;28;103011;-71
2024/01/16 02:22:30;;;;;;;11.43;5.18;;;;;;;-1.22;65.48;98061.78;4918992;28;104239;-71
2024/01/16 02:24:59;;;;;;;7.60;3.90;;;;;;;-1.15;65.25;98057.81;4916648;28;104122;-72
2024/01/16 02:27:27;;;;;;;7.05;4.32;;;;;;;-1.11;65.06;98058.41;4920291;28;103240;-71
2024/01/16 02:29:55;;;;;;;6.43;4.03;;;;;;;-1.15;65.46;98054.38;4920962;28;102612;-72
2024/01/16 02:32:22;;;;;;;6.43;3.28;;;;;;;-1.12;65.32;98065.38;4922671;28;102754;-72
2024/01/16 02:34:51;;;;;;;7.35;3.72;;;;;;;-1.18;65.36;98058.84;4920601;28;104093;-71
2024/01/16 02:37:19;;;;;;;7.07;4.20;;;;;;;-1.30;65.64;98057.13;4919601;28;103270;-72
2024/01/16 02:39:47;;;;;;;5.55;3.85;;;;;;;-1.25;65.43;98062.81;4920232;28;103022;-72
2024/01/16 02:42:16;;;;;;;7.72;5.07;;;;;;;-1.27;65.51;98062.13;4922259;28;102956;-72
2024/01/16 02:44:44;;;;;;;6.72;4.32;;;;;;;-1.28;65.82;98059.63;4918177;28;104149;-72
2024/01/16 02:47:12;;;;;;;7.22;4.40;;;;;;;-1.37;65.95;98064.53;4918654;28;102966;-71
2024/01/16 02:49:40;;;;;;;8.55;5.45;;;;;;;-1.36;65.72;98073.97;4922266;28;103050;-71
2024/01/16 02:52:08;;;;;;;5.68;3.50;;;;;;;-1.33;65.52;98067.75;4919859;28;103521;-71
2024/01/16 02:54:36;;;;;;;6.90;3.88;;;;;;;-1.40;65.84;98069.94;4919256;28;104400;-72
2024/01/16 02:57:05;;;;;;;6.50;4.25;;;;;;;-1.33;65.43;98078.13;4917099;28;103254;-70
2024/01/16 02:59:34;;;;;;;7.13;4.05;;;;;;;-1.40;65.98;98063.91;4918546;28;102687;-72
2024/01/16 03:02:02;;;;;;;5.68;3.60;;;;;;;-1.36;65.51;98070.56;4920288;28;103662;-71
2024/01/16 03:04:30;;;;;;;5.95;3.80;;;;;;;-1.44;65.72;98073.69;4918389;28;103817;-72
2024/01/16 03:06:59;;;;;;;6.25;3.80;;;;;;;-1.45;66.08;98076.41;4914077;28;104425;-71
2024/01/16 03:09:27;;;;;;;6.70;3.97;;;;;;;-1.44;65.96;98078.03;4932039;27;103067;-71
2024/01/16 03:11:55;;;;;;;8.38;5.45;;;;;;;-1.56;66.07;98092.72;4918919;28;102769;-71
2024/01/16 03:14:23;;;;;;;9.10;4.40;;;;;;;-1.64;66.58;98077.66;4921196;28;103300;-71
2024/01/16 03:16:52;;;;;;;9.77;6.25;;;;;;;-1.68;66.48;98086.59;4922242;28;103264;-72
2024/01/16 03:19:20;;;;;;;7.97;4.22;;;;;;;-1.75;66.95;98080.19;4919296;28;103127;-72
2024/01/16 03:21:48;;;;;;;5.95;3.58;;;;;;;-1.73;66.82;98091.28;4920948;28;102665;-72
2024/01/16 03:24:16;;;;;;;6.10;3.88;;;;;;;-1.71;67.10;98076.44;4921750;28;104274;-71
2024/01/16 03:26:44;;;;;;;6.75;3.88;;;;;;;-1.66;66.56;98074.38;4919023;28;104222;-72
2024/01/16 03:29:12;;;;;;;6.95;3.55;;;;;;;-1.68;66.52;98071.03;4917900;28;102591;-72
2024/01/16 03:31:40;;;;;;;6.55;3.70;;;;;;;-1.66;66.70;98074.38;4922060;28;102628;-72
2024/01/16 03:34:12;;;;;;;5.18;3.38;;;;;;;-1.69;66.47;98077.16;4919078;28;103243;-72
2024/01/16 03:36:40;;;;;;;7.25;4.82;;;;;;;-1.71;66.71;98086.84;4912351;28;103245;-72
2024/01/16 03:39:08;;;;;;;7.75;4.55;;;;;;;-1.72;66.94;98088.59;4920510;28;103568;-71
2024/01/16 03:41:39;;;;;;;7.57;4.63;;;;;;;-1.69;66.77;98090.13;4920553;28;103673;-72
2024/01/16 03:44:07;;;;;;;6.95;3.97;;;;;;;-1.70;66.37;98080.72;4920631;28;104257;-71
2024/01/16 03:46:35;;;;;;;9.25;5.57;;;;;;;-1.72;66.55;98079.97;4920975;28;102649;-72
2024/01/16 03:49:03;;;;;;;8.73;5.13;;;;;;;-1.72;66.71;98085.16;4919421;28;103128;-72
2024/01/16 03:51:32;;;;;;;6.43;4.43;;;;;;;-1.77;66.60;98069.06;4920918;28;104068;-72
2024/01/16 03:54:00;;;;;;;5.43;3.67;;;;;;;-1.77;66.81;98071.66;4920738;28;103352;-72
2024/01/16 03:56:28;;;;;;;6.45;3.97;;;;;;;-1.82;66.38;98069.41;4922199;28;103152;-71
2024/01/16 03:58:56;;;;;;;7.70;4.55;;;;;;;-1.79;66.91;98061.41;4923510;28;102678;-72
2024/01/16 04:01:31;;;;;;;6.85;4.10;;;;;;;-1.84;66.51;98061.69;4920744;28;104457;-72
2024/01/16 04:04:01;;;;;;;6.43;4.30;;;;;;;-1.91;67.07;98060.47;4919683;28;104115;-72
2024/01/16 04:06:29;;;;;;;6.35;3.78;;;;;;;-1.89;67.00;98068.16;4915718;28;104130;-72
2024/01/16 04:09:02;;;;;;;6.28;3.83;;;;;;;-1.87;66.38;98063.69;4918763;28;102612;-72
2024/01/16 04:11:30;;;;;;;6.93;3.97;;;;;;;-1.92;66.57;98064.00;4921134;28;102915;-72
2024/01/16 04:13:58;;;;;;;5.95;3.45;;;;;;;-1.91;66.55;98065.66;4920870;28;105324;-72
2024/01/16 04:16:26;;;;;;;6.97;3.50;;;;;;;-1.96;67.13;98067.75;4920430;28;103199;-72
2024/01/16 04:18:54;;;;;;;10.10;4.40;;;;;;;-1.97;66.80;98057.47;4921023;28;102559;-72
2024/01/16 04:21:22;;;;;;;8.05;3.60;;;;;;;-1.94;66.69;98063.28;4921240;28;103949;-72
2024/01/16 04:23:50;;;;;;;7.53;4.70;;;;;;;-1.98;66.74;98064.41;4919466;28;104025;-71
2024/01/16 04:26:20;;;;;;;6.72;4.55;;;;;;;-2.02;66.69;98063.81;4920638;28;103315;-72
2024/01/16 04:28:47;;;;;;;7.43;4.15;;;;;;;-2.04;66.84;98068.25;4919935;28;102720;-71
2024/01/16 04:31:17;;;;;;;7.43;4.35;;;;;;;-2.06;67.33;98057.16;4929035;28;104386;-72
2024/01/16 04:33:45;;;;;;;9.00;4.95;;;;;;;-2.09;66.80;98064.34;4934583;27;104348;-72
2024/01/16 04:36:13;;;;;;;6.22;4.40;;;;;;;-2.10;66.83;98054.88;4915842;28;102566;-71
2024/01/16 04:38:41;;;;;;;6.47;3.35;;;;;;;-2.10;66.94;98067.84;4917645;28;102622;-72
2024/01/16 04:41:09;;;;;;;5.95;3.30;;;;;;;-2.18;67.18;98069.19;4917165;28;102821;-72
2024/01/16 04:43:39;;;;;;;8.00;4.00;;;;;;;-2.22;67.21;98064.31;4917408;28;104308;-72
2024/01/16 04:46:06;;;;;;;10.10;5.53;;;;;;;-2.19;67.35;98061.50;4918732;28;102589;-72
2024/01/16 04:48:35;;;;;;;7.32;4.15;;;;;;;-2.21;67.33;98064.22;4918641;28;102672;-71
2024/01/16 04:51:03;;;;;;;8.45;4.50;;;;;;;-2.19;67.08;98058.91;4920844;28;104149;-73
2024/01/16 04:53:31;;;;;;;6.85;4.28;;;;;;;-2.17;66.92;98060.47;4918607;28;104852;-73
2024/01/16 04:56:00;;;;;;;6.93;4.18;;;;;;;-2.17;67.19;98055.28;4917894;28;103377;-73
2024/01/16 04:58:28;;;;;;;6.72;4.38;;;;;;;-2.21;66.52;98048.66;4917268;28;102768;-73
2024/01/16 05:00:57;;;;;;;4.82;3.50;;;;;;;-2.18;67.43;98052.81;4917617;28;103005;-73
2024/01/16 05:03:25;;;;;;;6.72;3.72;;;;;;;-2.18;66.77;98058.00;4902108;28;103220;-73
2024/01/16 05:05:53;;;;;;;7.30;3.83;;;;;;;-2.19;66.83;98054.56;4907663;28;103351;-74
2024/01/16 05:08:24;;;;;;;6.32;3.25;;;;;;;-2.25;67.04;98054.97;4885863;28;102980;-73
2024/01/16 05:11:02;;;;;;;6.22;3.17;;;;;;;-2.28;67.00;98062.13;4901371;28;103252;-72
2024/01/16 05:13:30;;;;;;;5.78;3.42;;;;;;;-2.25;66.91;98052.38;4908084;28;103940;-72
2024/01/16 05:15:59;;;;;;;6.55;3.80;;;;;;;-2.24;66.67;98059.25;4908350;28;104115;-72
2024/01/16 05:18:29;;;;;;;7.00;3.95;;;;;;;-2.24;66.96;98064.44;4908809;28;102932;-73
2024/01/16 05:20:57;;;;;;;6.97;3.58;;;;;;;-2.29;66.53;98066.50;4909918;28;102727;-72
2024/01/16 05:23:27;;;;;;;10.15;4.30;;;;;;;-2.35;66.44;98061.72;4908240;28;103245;-73
2024/01/16 05:25:55;;;;;;;5.85;3.53;;;;;;;-2.39;67.43;98053.28;4907928;28;103216;-72
2024/01/16 05:28:24;;;;;;;6.35;3.63;;;;;;;-2.45;67.12;98053.72;4908268;28;103265;-72
2024/01/16 05:30:52;;;;;;;5.20;3.03;;;;;;;-2.41;67.41;98051.75;4893588;28;104521;-73
2024/01/16 05:33:21;;;;;;;5.90;3.45;;;;;;;-2.36;67.39;98047.06;4909126;28;103187;-72
2024/01/16 05:35:50;;;;;;;6.15;3.95;;;;;;;-2.38;66.97;98042.00;4915707;28;104526;-72
2024/01/16 05:38:18;;;;;;;7.63;3.78;;;;;;;-2.48;66.48;98034.94;4914223;28;102825;-72
2024/01/16 05:40:46;;;;;;;7.20;4.25;;;;;;;-2.50;67.44;98033.28;4928057;27;104221;-72
2024/01/16 05:43:14;;;;;;;7.03;3.85;;;;;;;-2.45;67.43;98034.72;4911218;28;104169;-72
2024/01/16 05:45:42;;;;;;;7.10;3.95;;;;;;;-2.65;67.18;98034.28;4906476;28;102690;-72
2024/01/16 05:48:10;;;;;;;6.82;4.20;;;;;;;-2.80;67.54;98024.91;4904376;28;102778;-74
2024/01/16 05:50:40;;;;;;;7.10;3.60;;;;;;;-2.80;68.08;98025.78;4909917;28;104086;-72
2024/01/16 05:53:08;;;;;;;7.93;3.78;;;;;;;-2.80;68.33;98024.91;4922238;27;103313;-72
2024/01/16 05:55:36;;;;;;;5.20;3.20;;;;;;;-2.69;68.56;98022.47;4910754;28;103210;-72
2024/01/16 05:58:05;;;;;;;5.72;3.53;;;;;;;-2.64;68.08;98035.13;4920047;28;103230;-81
2024/01/16 06:00:34;;;;;;;6.95;4.60;;;;;;;-2.61;67.72;98030.56;4916454;28;102582;-76
2024/01/16 06:03:03;;;;;;;6.25;4.35;;;;;;;-2.58;67.69;98025.19;4907709;28;104201;-75
2024/01/16 06:05:31;;;;;;;7.05;4.18;;;;;;;-2.64;68.16;98035.94;4912096;28;103609;-75
2024/01/16 06:08:01;;;;;;;6.88;3.95;;;;;;;-2.64;68.23;98033.34;4910278;28;102624;-75
2024/01/16 06:10:29;;;;;;;6.45;4.05;;;;;;;-2.71;68.16;98030.34;4911862;28;103079;-75
2024/01/16 06:12:56;;;;;;;6.82;3.80;;;;;;;-2.76;68.79;98019.44;4907245;28;103298;-74
2024/01/16 06:15:24;;;;;;;8.00;3.60;;;;;;;-2.76;68.96;98031.59;4899790;28;102770;-73
2024/01/16 06:17:52;;;;;;;9.20;4.60;;;;;;;-2.75;68.26;98022.84;4908625;28;102831;-72
2024/01/16 06:20:23;;;;;;;7.20;4.40;;;;;;;-2.68;68.73;98029.31;4946798;28;102647;-73
2024/01/16 06:22:51;;;;;;;7.47;4.38;;;;;;;-2.70;68.52;98025.97;4915197;28;104526;-72
2024/01/16 06:25:21;;;;;;;6.03;3.63;;;;;;;-2.70;68.56;98013.00;4924247;27;104349;-73
2024/01/16 06:27:48;;;;;;;7.70;4.20;;;;;;;-2.67;68.50;98021.44;4904968;28;102711;-72
2024/01/16 06:30:16;;;;;;;8.13;4.97;;;;;;;-2.62;68.64;98020.28;4908599;28;104306;-71
2024/01/16 06:32:44;;;;;;;7.15;3.78;;;;;;;-2.61;68.48;98020.19;4927796;28;104370;-72
2024/01/16 06:35:16;;;;;;;6.68;4.15;;;;;;;-2.54;68.39;98025.78;4919362;28;103256;-72
2024/01/16 06:37:44;;;;;;;5.82;3.80;;;;;;;-2.54;68.15;98025.78;4914821;28;102692;-73
2024/01/16 06:40:12;;;;;;;6.20;3.35;;;;;;;-2.59;68.10;98025.28;4945074;28;102795;-72
2024/01/16 06:42:41;;;;;;;6.00;4.68;;;;;;;-2.54;68.10;98036.16;4910166;28;103313;-72
2024/01/16 06:45:10;;;;;;;10.30;4.60;;;;;;;-2.58;68.22;98038.16;4918662;28;103269;-72
2024/01/16 06:47:37;;;;;;;7.43;4.47;;;;;;;-2.53;68.06;98028.31;4907397;28;102758;-71
2024/01/16 06:50:07;;;;;;;8.38;4.28;;;;;;;-2.53;68.11;98032.66;4908851;28;102706;-73
2024/01/16 06:52:35;;;;;;;8.20;4.90;;;;;;;-2.59;67.94;98028.69;4904338;28;104351;-72
2024/01/16 06:55:04;;;;;;;6.82;4.78;;;;;;;-2.49;66.97;98034.09;4906161;28;104154;-72
2024/01/16 06:57:34;;;;;;;6.10;4.50;;;;;;;-2.46;67.20;98033.06;4914268;28;102792;-76
2024/01/16 07:00:07;;;;;;;11.60;4.43;;;;;;;-2.53;66.73;98037.81;4895054;28;104035;-76
2024/01/16 07:02:35;;;;;;;7.10;5.15;;;;;;;-2.47;66.43;98034.00;4914271;28;103415;-77
2024/01/16 07:05:03;;;;;;;7.32;4.28;;;;;;;-2.55;66.08;98031.94;4921004;28;104180;-77
2024/01/16 07:07:31;;;;;;;6.15;4.10;;;;;;;-2.58;65.98;98043.34;4916348;28;102667;-78
2024/01/16 07:12:53;;;;;;;6.13;3.55;;;;;;;-2.57;65.82;98034.63;4916915;28;104251;-76
2024/01/16 07:15:22;;;;;;;6.93;3.92;;;;;;;-2.53;65.66;98041.28;4916650;28;103496;-77
2024/01/16 07:17:50;;;;;;;9.57;5.15;;;;;;;-2.48;65.90;98034.94;4929029;28;102742;-77
2024/01/16 07:20:18;;;;;;;4.93;3.00;;;;;;;-2.57;65.78;98036.38;4910386;27;104210;-77
2024/01/16 07:22:46;;;;;;;7.43;3.65;;;;;;;-2.53;65.41;98030.03;4920541;28;104264;-79
2024/01/16 07:25:14;;;;;;;8.40;4.30;;;;;;;-2.52;65.24;98032.53;4917850;28;104239;-75
2024/01/16 07:27:45;;;;;;;8.50;3.20;;;;;;;-2.53;65.03;98033.50;4918558;28;103830;-77
2024/01/16 07:30:13;;;;;;;7.28;3.55;;;;;;;-2.52;64.81;98029.13;4921937;28;104170;-77
2024/01/16 07:32:43;;;;;;;5.75;3.35;;;;;;;-2.46;64.85;98033.06;4914819;28;103385;-79
2024/01/16 07:35:11;;;;;;;7.65;3.75;;;;;;;-2.46;64.51;98033.06;4921652;28;103235;-77
2024/01/16 07:37:40;;;;;;;7.90;3.80;;;;;;;-2.40;64.97;98032.66;4930265;28;102643;-79
2024/01/16 07:40:09;;;;;;;5.97;3.85;;;;;;;-2.37;64.41;98032.44;4918956;28;103978;-77
2024/01/16 07:42:37;;;;;;;5.75;3.78;;;;;;;-2.27;64.17;98027.47;4932259;28;104162;-88
2024/01/16 07:45:06;;;;;;;6.57;3.38;;;;;;;-2.35;64.22;98021.03;5005530;28;102672;-83
2024/01/16 07:47:36;;;;;;;4.60;2.78;;;;;;;-2.30;63.67;98028.53;4995195;28;102666;-82
2024/01/16 07:50:06;;;;;;;7.88;3.88;;;;;;;-2.24;63.97;98028.09;5000129;28;104651;-80
2024/01/16 07:52:35;;;;;;;5.95;3.33;;;;;;;-2.33;63.61;98024.38;4991490;28;104170;-76
2024/01/16 07:55:04;;;;;;;6.45;2.92;;;;;;;-2.29;63.41;98031.94;4996468;28;104550;-77
2024/01/16 07:57:32;;;;;;;5.25;3.35;;;;;;;-2.21;63.52;98025.28;4995221;28;103866;-77
2024/01/16 08:00:00;;;;;;;7.95;3.13;;;;;;;-2.23;63.33;98029.75;4995691;28;104345;-79
2024/01/16 08:02:33;;;;;;;8.43;2.97;;;;;;;-2.28;62.77;98021.47;5012673;28;104226;-77
2024/01/16 08:05:01;;;;;;;6.60;3.90;;;;;;;-2.16;62.93;98030.19;5011060;27;103828;-77
2024/01/16 08:07:31;;;;;;;6.95;4.10;;;;;;;-2.10;62.95;98029.75;5017760;27;103157;-77
2024/01/16 08:09:59;;;;;;;7.65;3.80;;;;;;;-2.19;62.56;98023.44;4994085;28;104340;-77
2024/01/16 08:12:27;;;;;;;5.65;2.80;;;;;;;-2.14;62.34;98030.06;5008558;28;103810;-78
2024/01/16 08:14:55;;;;;;;5.75;2.80;;;;;;;-2.10;62.30;98029.75;5012367;28;103380;-78
2024/01/16 08:17:23;;;;;;;6.35;3.90;;;;;;;-2.11;61.99;98025.53;4992205;28;102716;-78
2024/01/16 08:19:51;;;;;;;6.40;3.53;;;;;;;-2.05;61.93;98021.66;4990103;28;103761;-78
2024/01/16 08:22:21;;;;;;;6.15;3.60;;;;;;;-1.99;61.87;98026.44;5014565;27;104259;-77
2024/01/16 08:24:51;;;;;;;4.50;2.83;;;;;;;-1.93;61.16;98031.19;5010416;28;103109;-77
2024/01/16 08:27:20;;;;;;;6.93;3.05;;;;;;;-1.91;61.05;98031.94;4955517;28;102726;-77
2024/01/16 08:29:49;;;;;;;4.70;2.85;;;;;;;-1.83;61.23;98037.41;4917507;28;104086;-78
2024/01/16 08:32:17;;;;;;;5.97;3.53;;;;;;;-1.78;61.39;98038.84;4914886;28;103234;-76
2024/01/16 08:34:45;;;;;;;6.40;3.42;;;;;;;-1.75;61.14;98036.06;4912344;28;103210;-75
2024/01/16 08:37:15;;;;;;;6.78;3.22;;;;;;;-1.61;60.93;98038.53;4916976;28;102767;-77
2024/01/16 08:40:11;;;;;;;4.72;2.95;;;;;;;-1.54;60.18;98041.50;4912371;28;103829;-76
2024/01/16 08:42:40;;;;;;;6.28;3.65;;;;;;;-1.49;60.49;98042.03;4916493;28;103811;-78
2024/01/16 08:45:11;;;;;;;5.00;2.88;;;;;;;-1.46;60.61;98043.56;4931356;28;104349;-77
2024/01/16 08:47:43;;;;;;;6.40;3.55;;;;;;;-1.42;60.36;98050.22;4913103;28;102830;-76
2024/01/16 08:50:14;;;;;;;5.28;3.10;;;;;;;-1.32;60.20;98043.44;4905222;28;102955;-77
2024/01/16 08:52:48;;;;;;;4.32;2.83;;;;;;;-1.32;60.35;98046.03;4911810;28;103269;-77
2024/01/16 08:55:18;;;;;;;5.95;3.38;;;;;;;-1.23;59.81;98055.75;4914548;28;104141;-77
2024/01/16 08:57:46;;;;;;;4.53;2.67;;;;;;;-1.06;60.37;98061.50;4914111;28;102707;-76
2024/01/16 09:00:15;;;;;;;5.47;3.03;;;;;;;-0.96;60.53;98062.50;4913013;28;103928;-77
2024/01/16 09:02:43;;;;;;;4.47;2.63;;;;;;;-0.86;60.80;98058.28;4901198;28;103899;-77
2024/01/16 09:05:14;;;;;;;5.10;2.47;;;;;;;-0.74;60.60;98060.94;4914333;28;103194;-77
2024/01/16 09:07:42;;;;;;;4.32;2.53;;;;;;;-0.67;59.84;98056.94;4900860;28;102662;-77
2024/01/16 09:10:11;;;;;;;6.05;3.33;;;;;;;-0.59;59.85;98053.78;4941738;28;104415;-77
2024/01/16 09:12:44;;;;;;;6.80;3.78;;;;;;;-0.54;59.45;98056.88;4910940;28;108201;-77
2024/01/16 09:15:15;;;;;;;6.07;3.85;;;;;;;-0.47;59.43;98054.66;4939286;28;103274;-78
2024/01/16 09:17:43;;;;;;;5.03;2.90;;;;;;;-0.42;59.11;98058.59;4939210;28;102669;-78
2024/01/16 09:20:12;;;;;;;6.53;4.13;;;;;;;-0.36;59.75;98054.69;4936699;28;104141;-78
2024/01/16 09:22:40;;;;;;;7.70;3.95;;;;;;;-0.34;59.87;98056.22;4954139;27;104253;-78
2024/01/16 09:25:09;;;;;;;5.47;3.38;;;;;;;-0.29;59.21;98061.06;4940096;27;102676;-78
2024/01/16 09:27:37;;;;;;;4.80;3.30;;;;;;;-0.21;59.38;98052.69;4925996;28;103124;-78
2024/01/16 09:30:08;;;;;;;7.35;3.90;;;;;;;-0.10;59.96;98059.72;4976418;27;104182;-78
2024/01/16 09:32:37;;;;;;;6.50;3.60;;;;;;;-0.03;59.36;98063.47;4937246;28;102994;-78
2024/01/16 09:35:09;;;;;;;7.78;3.75;;;;;;;0.06;58.53;98060.19;4973952;28;103431;-79
2024/01/16 09:37:43;;;;;;;8.00;3.50;;;;;;;0.05;57.65;98055.91;4918047;28;102923;-77
2024/01/16 09:40:13;;;;;;;10.95;4.43;;;;;;;0.10;57.01;98064.19;4902526;28;102934;-79
2024/01/16 09:42:41;;;;;;;5.22;3.13;;;;;;;0.03;57.94;98060.44;4900966;28;104286;-79
2024/01/16 09:45:11;;;;;;;7.97;3.30;;;;;;;0.22;58.72;98064.22;4909115;28;103351;-79
2024/01/16 09:47:40;;;;;;;12.50;4.78;;;;;;;-0.18;56.41;98063.69;4919533;28;102828;-79
2024/01/16 09:50:09;;;;;;;9.13;4.30;;;;;;;-0.17;55.95;98061.94;4918954;28;104037;-79
2024/01/16 09:52:37;;;;;;;9.90;4.55;;;;;;;-0.35;56.74;98064.16;4902772;28;104102;-79
2024/01/16 09:55:06;;;;;;;6.28;3.30;;;;;;;-0.05;58.38;98054.97;4921820;27;104076;-78
2024/01/16 09:57:36;;;;;;;5.47;3.22;;;;;;;0.16;57.08;98055.94;4952540;28;102839;-79
2024/01/16 10:00:05;;;;;;;10.60;4.22;;;;;;;0.35;56.86;98064.91;4921261;28;103977;-80
2024/01/16 10:02:35;;;;;;;6.45;3.55;;;;;;;0.48;57.15;98054.38;4934211;28;103361;-80
2024/01/16 10:05:03;;;;;;;6.78;3.13;;;;;;;0.54;56.79;98059.13;4935747;28;103200;-81
2024/01/16 10:07:33;;;;;;;16.65;4.03;;;;;;;0.54;54.75;98059.13;4932597;28;102718;-81
2024/01/16 10:10:02;;;;;;;5.75;3.72;;;;;;;0.43;53.59;98056.50;4935292;28;104344;-80
2024/01/16 10:12:30;;;;;;;6.47;3.80;;;;;;;0.69;54.91;98051.84;4933397;28;104208;-79
2024/01/16 10:14:57;;;;;;;7.13;3.45;;;;;;;0.71;53.80;98046.50;4916293;28;104413;-78
2024/01/16 10:17:38;;;;;;;6.90;3.17;;;;;;;0.83;54.98;98046.38;4914465;28;102793;-77
2024/01/16 10:20:07;;;;;;;8.38;3.38;;;;;;;0.88;54.19;98039.94;4919602;28;102900;-78
2024/01/16 10:22:38;;;;;;;6.55;3.70;;;;;;;0.85;53.25;98040.22;4925078;28;103798;-78
2024/01/16 10:25:09;;;;;;;6.95;3.28;;;;;;;1.03;54.56;98028.28;4918274;28;104085;-79
2024/01/16 10:27:40;;;;;;;5.18;2.88;;;;;;;1.13;55.02;98028.41;4916148;28;102787;-78
2024/01/16 10:30:10;;;;;;;4.70;2.67;;;;;;;1.23;55.24;98018.03;5001853;27;102732;-78
2024/01/16 10:32:41;;;;;;;10.10;4.47;;;;;;;1.08;53.38;98015.72;5009347;27;105184;-77
2024/01/16 10:35:11;;;;;;;12.20;4.05;;;;;;;1.08;53.29;98005.28;4933716;28;103190;-77
2024/01/16 10:37:45;;;;;;;10.10;5.30;;;;;;;1.21;54.10;98019.94;4914515;28;103021;-78
2024/01/16 10:40:18;;;;;;;5.63;3.50;;;;;;;1.00;52.70;98005.09;4937794;28;104057;-78
2024/01/16 10:42:57;;;;;;;5.88;3.10;;;;;;;1.32;53.84;98015.50;4967499;27;103335;-78
2024/01/16 10:45:26;;;;;;;8.82;3.83;;;;;;;1.36;53.96;98010.84;4908880;28;104286;-78
2024/01/16 10:48:03;;;;;;;10.77;4.47;;;;;;;1.09;53.20;98019.97;4908538;28;102834;-78
2024/01/16 10:50:33;;;;;;;10.98;4.25;;;;;;;1.16;53.12;98021.13;4915169;28;103284;-78
2024/01/16 10:53:04;;;;;;;7.22;4.25;;;;;;;1.75;52.64;98018.91;4919646;28;104174;-78
2024/01/16 10:55:37;;;;;;;8.60;3.90;;;;;;;2.06;52.33;98016.31;4912226;28;102732;-78
2024/01/16 10:58:08;;;;;;;8.38;4.53;;;;;;;1.32;51.47;98017.25;4897216;28;102661;-77
2024/01/16 11:00:41;;;;;;;6.82;3.85;;;;;;;2.08;51.74;98006.56;4921125;28;103073;-77
2024/01/16 11:03:19;;;;;;;9.05;4.32;;;;;;;2.58;51.81;97997.09;4939250;27;105159;-78
2024/01/16 11:05:48;;;;;;;8.57;3.88;;;;;;;3.06;51.20;97990.25;4894498;28;104280;-78
2024/01/16 11:08:17;;;;;;;9.05;4.38;;;;;;;2.71;50.27;97997.69;4910842;28;102786;-78
2024/01/16 11:10:46;;;;;;;8.70;4.53;;;;;;;2.24;50.34;98000.03;4914175;28;103465;-77
2024/01/16 11:13:15;;;;;;;7.43;4.47;;;;;;;2.35;50.09;97989.47;4916892;28;103381;-78
2024/01/16 11:15:43;;;;;;;11.77;4.85;;;;;;;2.41;50.40;97991.56;4906732;28;103418;-77
2024/01/16 11:18:15;;;;;;;6.07;3.55;;;;;;;3.06;50.25;97983.22;4915642;28;102563;-79
2024/01/16 11:20:44;;;;;;;9.73;4.40;;;;;;;3.04;48.92;97984.34;4914003;28;104450;-79
2024/01/16 11:23:32;;;;;;;10.43;4.55;;;;;;;2.47;49.04;97974.50;4901295;28;103265;-77
2024/01/16 11:26:00;;;;;;;10.55;4.60;;;;;;;2.61;50.62;97968.06;4913282;28;103268;-77
2024/01/16 11:28:30;;;;;;;5.03;3.53;;;;;;;3.42;49.87;97957.31;4897748;28;104290;-77
2024/01/16 11:30:59;;;;;;;9.50;4.65;;;;;;;3.04;48.48;97966.00;4907309;28;104147;-78
2024/01/16 11:33:47;;;;;;;7.63;4.28;;;;;;;3.67;48.44;97955.06;4918480;28;104239;-78
2024/01/16 11:36:44;;;;;;;8.13;4.57;;;;;;;4.07;48.23;97946.06;4904720;28;103235;-78
2024/01/16 11:39:18;;;;;;;9.40;3.67;;;;;;;4.28;47.90;97945.00;4917709;28;102778;-80